sensor_id;sensor_type;location;lat;lon;timestamp;pressure;altitude;pressure_sealevel;temperature
78917;BMP280;68315;48.608;11.436;2023-03-01T12:59:18;97360.53;;;21.90
78917;BMP280;68315;48.608;11.436;2023-03-01T13:04:40;97345.94;;;22.03
78917;BMP280;68315;48.608;11.436;2023-03-01T13:21:29;97348.41;;;12.12
78917;BMP280;68315;48.608;11.436;2023-03-01T13:23:55;97349.50;;;10.89
78917;BMP280;68315;48.608;11.436;2023-03-01T13:26:20;97354.97;;;10.18
78917;BMP280;68315;48.608;11.436;2023-03-01T13:39:26;97364.41;;;9.29
78917;BMP280;68315;48.608;11.436;2023-03-01T13:41:54;97363.66;;;9.29
78917;BMP280;68315;48.608;11.436;2023-03-01T13:46:45;97362.41;;;9.30
78917;BMP280;68315;48.608;11.436;2023-03-01T13:49:20;97352.63;;;9.34
78917;BMP280;68315;48.608;11.436;2023-03-01T13:51:47;97350.09;;;9.37
78917;BMP280;68315;48.608;11.436;2023-03-01T13:54:14;97355.09;;;9.38
78917;BMP280;68315;48.608;11.436;2023-03-01T13:56:40;97339.06;;;9.42
78917;BMP280;68315;48.608;11.436;2023-03-01T13:59:13;97347.75;;;9.46
78917;BMP280;68315;48.608;11.436;2023-03-01T14:01:40;97347.41;;;9.55
78917;BMP280;68315;48.608;11.436;2023-03-01T14:04:20;97342.03;;;9.63
78917;BMP280;68315;48.608;11.436;2023-03-01T14:06:46;97343.22;;;9.67
78917;BMP280;68315;48.608;11.436;2023-03-01T14:09:18;97347.91;;;9.72
78917;BMP280;68315;48.608;11.436;2023-03-01T14:11:57;97339.44;;;9.70
78917;BMP280;68315;48.608;11.436;2023-03-01T14:14:34;97349.09;;;9.77
78917;BMP280;68315;48.608;11.436;2023-03-01T14:19:38;97342.56;;;9.80
78917;BMP280;68315;48.608;11.436;2023-03-01T14:22:22;97333.19;;;9.88
78917;BMP280;68315;48.608;11.436;2023-03-01T14:24:50;97328.38;;;9.94
78917;BMP280;68315;48.608;11.436;2023-03-01T14:27:17;97340.44;;;10.04
78917;BMP280;68315;48.608;11.436;2023-03-01T14:29:42;97332.88;;;10.10
78917;BMP280;68315;48.608;11.436;2023-03-01T14:32:18;97340.06;;;10.13
78917;BMP280;68315;48.608;11.436;2023-03-01T14:34:45;97326.13;;;10.11
78917;BMP280;68315;48.608;11.436;2023-03-01T14:37:19;97329.53;;;10.18
78917;BMP280;68315;48.608;11.436;2023-03-01T14:39:45;97329.00;;;10.19
78917;BMP280;68315;48.608;11.436;2023-03-01T14:42:13;97329.72;;;10.20
78917;BMP280;68315;48.608;11.436;2023-03-01T14:44:41;97316.84;;;10.28
78917;BMP280;68315;48.608;11.436;2023-03-01T14:47:12;97328.06;;;10.30
78917;BMP280;68315;48.608;11.436;2023-03-01T14:49:39;97319.00;;;10.35
78917;BMP280;68315;48.608;11.436;2023-03-01T14:52:07;97317.75;;;10.36
78917;BMP280;68315;48.608;11.436;2023-03-01T14:54:44;97317.63;;;10.41
78917;BMP280;68315;48.608;11.436;2023-03-01T14:57:29;97305.06;;;10.46
78917;BMP280;68315;48.608;11.436;2023-03-01T14:59:58;97311.00;;;10.50
78917;BMP280;68315;48.608;11.436;2023-03-01T15:02:26;97311.94;;;10.52
78917;BMP280;68315;48.608;11.436;2023-03-01T15:04:56;97309.50;;;10.49
78917;BMP280;68315;48.608;11.436;2023-03-01T15:07:27;97298.31;;;10.47
78917;BMP280;68315;48.608;11.436;2023-03-01T15:09:53;97302.00;;;10.49
78917;BMP280;68315;48.608;11.436;2023-03-01T15:14:54;97295.38;;;10.58
78917;BMP280;68315;48.608;11.436;2023-03-01T15:17:36;97288.09;;;10.60
78917;BMP280;68315;48.608;11.436;2023-03-01T15:20:06;97283.97;;;10.67
78917;BMP280;68315;48.608;11.436;2023-03-01T15:22:32;97279.72;;;10.66
78917;BMP280;68315;48.608;11.436;2023-03-01T15:24:58;97281.63;;;10.58
78917;BMP280;68315;48.608;11.436;2023-03-01T15:27:25;97281.22;;;10.54
78917;BMP280;68315;48.608;11.436;2023-03-01T15:29:56;97274.13;;;10.58
78917;BMP280;68315;48.608;11.436;2023-03-01T15:32:28;97276.34;;;10.60
78917;BMP280;68315;48.608;11.436;2023-03-01T15:34:55;97280.34;;;10.46
78917;BMP280;68315;48.608;11.436;2023-03-01T15:37:55;97285.09;;;10.45
78917;BMP280;68315;48.608;11.436;2023-03-01T15:40:27;97278.47;;;10.54
78917;BMP280;68315;48.608;11.436;2023-03-01T15:43:04;97272.03;;;10.51
78917;BMP280;68315;48.608;11.436;2023-03-01T15:45:32;97272.31;;;10.48
78917;BMP280;68315;48.608;11.436;2023-03-01T15:48:04;97282.03;;;10.49
78917;BMP280;68315;48.608;11.436;2023-03-01T15:50:32;97293.34;;;10.45
78917;BMP280;68315;48.608;11.436;2023-03-01T15:52:59;97286.91;;;10.43
78917;BMP280;68315;48.608;11.436;2023-03-01T15:55:30;97284.56;;;10.47
78917;BMP280;68315;48.608;11.436;2023-03-01T15:58:23;97287.84;;;10.45
78917;BMP280;68315;48.608;11.436;2023-03-01T16:00:50;97289.66;;;10.43
78917;BMP280;68315;48.608;11.436;2023-03-01T16:03:22;97287.31;;;10.34
78917;BMP280;68315;48.608;11.436;2023-03-01T16:05:48;97288.69;;;10.27
78917;BMP280;68315;48.608;11.436;2023-03-01T16:08:14;97286.22;;;10.24
78917;BMP280;68315;48.608;11.436;2023-03-01T16:10:40;97289.06;;;10.18
78917;BMP280;68315;48.608;11.436;2023-03-01T16:13:06;97287.53;;;10.04
78917;BMP280;68315;48.608;11.436;2023-03-01T16:15:33;97292.16;;;9.96
78917;BMP280;68315;48.608;11.436;2023-03-01T16:18:00;97281.28;;;9.90
78917;BMP280;68315;48.608;11.436;2023-03-01T16:20:26;97286.13;;;9.84
78917;BMP280;68315;48.608;11.436;2023-03-01T16:22:52;97286.31;;;9.86
78917;BMP280;68315;48.608;11.436;2023-03-01T16:25:19;97291.81;;;9.86
78917;BMP280;68315;48.608;11.436;2023-03-01T16:27:46;97285.25;;;9.76
78917;BMP280;68315;48.608;11.436;2023-03-01T16:30:13;97283.63;;;9.68
78917;BMP280;68315;48.608;11.436;2023-03-01T16:32:43;97284.22;;;9.61
78917;BMP280;68315;48.608;11.436;2023-03-01T16:35:11;97275.31;;;9.55
78917;BMP280;68315;48.608;11.436;2023-03-01T16:37:37;97285.91;;;9.45
78917;BMP280;68315;48.608;11.436;2023-03-01T16:40:04;97287.19;;;9.44
78917;BMP280;68315;48.608;11.436;2023-03-01T16:42:34;97286.00;;;9.40
78917;BMP280;68315;48.608;11.436;2023-03-01T16:45:00;97290.28;;;9.35
78917;BMP280;68315;48.608;11.436;2023-03-01T16:47:26;97289.31;;;9.32
78917;BMP280;68315;48.608;11.436;2023-03-01T16:49:52;97292.66;;;9.25
78917;BMP280;68315;48.608;11.436;2023-03-01T16:52:18;97296.75;;;9.19
78917;BMP280;68315;48.608;11.436;2023-03-01T16:54:47;97296.28;;;9.15
78917;BMP280;68315;48.608;11.436;2023-03-01T16:57:12;97299.84;;;9.10
78917;BMP280;68315;48.608;11.436;2023-03-01T16:59:37;97294.09;;;9.08
78917;BMP280;68315;48.608;11.436;2023-03-01T17:02:05;97297.22;;;8.99
78917;BMP280;68315;48.608;11.436;2023-03-01T17:04:35;97295.28;;;8.94
78917;BMP280;68315;48.608;11.436;2023-03-01T17:07:00;97305.78;;;8.90
78917;BMP280;68315;48.608;11.436;2023-03-01T17:09:26;97295.84;;;8.87
78917;BMP280;68315;48.608;11.436;2023-03-01T17:11:51;97303.63;;;8.83
78917;BMP280;68315;48.608;11.436;2023-03-01T17:14:16;97298.78;;;8.70
78917;BMP280;68315;48.608;11.436;2023-03-01T17:16:44;97302.75;;;8.69
78917;BMP280;68315;48.608;11.436;2023-03-01T17:19:10;97303.28;;;8.68
78917;BMP280;68315;48.608;11.436;2023-03-01T17:21:36;97318.00;;;8.65
78917;BMP280;68315;48.608;11.436;2023-03-01T17:24:02;97305.81;;;8.60
78917;BMP280;68315;48.608;11.436;2023-03-01T17:26:28;97312.88;;;8.55
78917;BMP280;68315;48.608;11.436;2023-03-01T17:28:54;97306.69;;;8.49
78917;BMP280;68315;48.608;11.436;2023-03-01T17:31:21;97321.19;;;8.44
78917;BMP280;68315;48.608;11.436;2023-03-01T17:33:47;97320.69;;;8.40
78917;BMP280;68315;48.608;11.436;2023-03-01T17:36:14;97326.22;;;8.35
78917;BMP280;68315;48.608;11.436;2023-03-01T17:38:39;97314.88;;;8.25
78917;BMP280;68315;48.608;11.436;2023-03-01T17:41:04;97330.31;;;8.23
78917;BMP280;68315;48.608;11.436;2023-03-01T17:43:30;97334.06;;;8.20
78917;BMP280;68315;48.608;11.436;2023-03-01T17:45:58;97336.31;;;8.16
78917;BMP280;68315;48.608;11.436;2023-03-01T17:48:24;97334.38;;;8.11
78917;BMP280;68315;48.608;11.436;2023-03-01T17:50:50;97338.41;;;8.04
78917;BMP280;68315;48.608;11.436;2023-03-01T17:53:17;97342.44;;;7.98
78917;BMP280;68315;48.608;11.436;2023-03-01T17:55:43;97347.16;;;7.97
78917;BMP280;68315;48.608;11.436;2023-03-01T17:58:14;97345.94;;;7.87
78917;BMP280;68315;48.608;11.436;2023-03-01T18:00:39;97353.91;;;7.85
78917;BMP280;68315;48.608;11.436;2023-03-01T18:03:05;97346.75;;;7.76
78917;BMP280;68315;48.608;11.436;2023-03-01T18:05:32;97345.56;;;7.72
78917;BMP280;68315;48.608;11.436;2023-03-01T18:07:58;97346.06;;;7.70
78917;BMP280;68315;48.608;11.436;2023-03-01T18:10:23;97352.53;;;7.62
78917;BMP280;68315;48.608;11.436;2023-03-01T18:12:48;97350.13;;;7.53
78917;BMP280;68315;48.608;11.436;2023-03-01T18:15:15;97358.81;;;7.51
78917;BMP280;68315;48.608;11.436;2023-03-01T18:17:40;97352.88;;;7.47
78917;BMP280;68315;48.608;11.436;2023-03-01T18:20:06;97358.84;;;7.40
78917;BMP280;68315;48.608;11.436;2023-03-01T18:22:32;97352.44;;;7.32
78917;BMP280;68315;48.608;11.436;2023-03-01T18:24:57;97362.41;;;7.24
78917;BMP280;68315;48.608;11.436;2023-03-01T18:27:23;97355.94;;;7.22
78917;BMP280;68315;48.608;11.436;2023-03-01T18:29:50;97358.41;;;7.25
78917;BMP280;68315;48.608;11.436;2023-03-01T18:32:15;97357.66;;;7.19
78917;BMP280;68315;48.608;11.436;2023-03-01T18:34:41;97355.97;;;7.11
78917;BMP280;68315;48.608;11.436;2023-03-01T18:37:06;97359.94;;;7.09
78917;BMP280;68315;48.608;11.436;2023-03-01T18:39:31;97357.22;;;7.04
78917;BMP280;68315;48.608;11.436;2023-03-01T18:41:57;97363.19;;;7.02
78917;BMP280;68315;48.608;11.436;2023-03-01T18:44:22;97355.25;;;6.99
78917;BMP280;68315;48.608;11.436;2023-03-01T18:46:47;97362.72;;;6.98
78917;BMP280;68315;48.608;11.436;2023-03-01T18:49:14;97363.69;;;6.95
78917;BMP280;68315;48.608;11.436;2023-03-01T18:51:40;97361.00;;;6.90
78917;BMP280;68315;48.608;11.436;2023-03-01T18:54:08;97365.69;;;6.84
78917;BMP280;68315;48.608;11.436;2023-03-01T18:56:34;97373.91;;;6.73
78917;BMP280;68315;48.608;11.436;2023-03-01T18:59:00;97365.72;;;6.73
78917;BMP280;68315;48.608;11.436;2023-03-01T19:01:27;97370.19;;;6.70
78917;BMP280;68315;48.608;11.436;2023-03-01T19:03:54;97364.47;;;6.68
78917;BMP280;68315;48.608;11.436;2023-03-01T19:06:20;97373.91;;;6.62
78917;BMP280;68315;48.608;11.436;2023-03-01T19:08:46;97359.00;;;6.63
78917;BMP280;68315;48.608;11.436;2023-03-01T19:11:13;97370.19;;;6.59
78917;BMP280;68315;48.608;11.436;2023-03-01T19:13:41;97373.41;;;6.52
78917;BMP280;68315;48.608;11.436;2023-03-01T19:18:38;97370.41;;;6.45
78917;BMP280;68315;48.608;11.436;2023-03-01T19:21:06;97358.97;;;6.40
78917;BMP280;68315;48.608;11.436;2023-03-01T19:23:32;97368.44;;;6.34
78917;BMP280;68315;48.608;11.436;2023-03-01T19:26:02;97362.72;;;6.32
78917;BMP280;68315;48.608;11.436;2023-03-01T19:28:27;97355.25;;;6.27
78917;BMP280;68315;48.608;11.436;2023-03-01T19:30:57;97353.06;;;6.25
78917;BMP280;68315;48.608;11.436;2023-03-01T19:33:24;97353.81;;;6.26
78917;BMP280;68315;48.608;11.436;2023-03-01T19:35:49;97346.84;;;6.19
78917;BMP280;68315;48.608;11.436;2023-03-01T19:38:15;97348.28;;;6.15
78917;BMP280;68315;48.608;11.436;2023-03-01T19:40:40;97347.81;;;6.11
78917;BMP280;68315;48.608;11.436;2023-03-01T19:43:05;97343.34;;;6.08
78917;BMP280;68315;48.608;11.436;2023-03-01T19:45:31;97346.56;;;6.06
78917;BMP280;68315;48.608;11.436;2023-03-01T19:47:56;97344.31;;;6.05
78917;BMP280;68315;48.608;11.436;2023-03-01T19:50:22;97347.56;;;6.03
78917;BMP280;68315;48.608;11.436;2023-03-01T19:52:47;97345.06;;;6.00
78917;BMP280;68315;48.608;11.436;2023-03-01T19:55:13;97352.28;;;5.97
78917;BMP280;68315;48.608;11.436;2023-03-01T19:57:38;97358.19;;;5.96
78917;BMP280;68315;48.608;11.436;2023-03-01T20:00:05;97351.75;;;5.93
78917;BMP280;68315;48.608;11.436;2023-03-01T20:02:30;97347.75;;;5.89
78917;BMP280;68315;48.608;11.436;2023-03-01T20:04:55;97341.78;;;5.85
78917;BMP280;68315;48.608;11.436;2023-03-01T20:07:21;97345.25;;;5.80
78917;BMP280;68315;48.608;11.436;2023-03-01T20:09:46;97344.25;;;5.77
78917;BMP280;68315;48.608;11.436;2023-03-01T20:12:11;97342.72;;;5.70
78917;BMP280;68315;48.608;11.436;2023-03-01T20:14:37;97348.19;;;5.70
78917;BMP280;68315;48.608;11.436;2023-03-01T20:17:02;97342.50;;;5.68
78917;BMP280;68315;48.608;11.436;2023-03-01T20:19:28;97340.00;;;5.65
78917;BMP280;68315;48.608;11.436;2023-03-01T20:21:53;97347.16;;;5.57
78917;BMP280;68315;48.608;11.436;2023-03-01T20:24:18;97347.91;;;5.57
78917;BMP280;68315;48.608;11.436;2023-03-01T20:26:43;97349.13;;;5.51
78917;BMP280;68315;48.608;11.436;2023-03-01T20:29:09;97341.16;;;5.47
78917;BMP280;68315;48.608;11.436;2023-03-01T20:31:34;97342.09;;;5.33
78917;BMP280;68315;48.608;11.436;2023-03-01T20:34:00;97340.88;;;5.34
78917;BMP280;68315;48.608;11.436;2023-03-01T20:36:26;97337.41;;;5.34
78917;BMP280;68315;48.608;11.436;2023-03-01T20:38:53;97337.56;;;5.25
78917;BMP280;68315;48.608;11.436;2023-03-01T20:41:19;97339.34;;;5.28
78917;BMP280;68315;48.608;11.436;2023-03-01T20:43:45;97338.59;;;5.27
78917;BMP280;68315;48.608;11.436;2023-03-01T20:46:19;97343.53;;;5.23
78917;BMP280;68315;48.608;11.436;2023-03-01T20:48:45;97336.59;;;5.22
78917;BMP280;68315;48.608;11.436;2023-03-01T20:51:11;97330.09;;;5.14
78917;BMP280;68315;48.608;11.436;2023-03-01T20:53:37;97334.50;;;5.06
78917;BMP280;68315;48.608;11.436;2023-03-01T20:56:07;97335.25;;;5.07
78917;BMP280;68315;48.608;11.436;2023-03-01T20:58:34;97337.75;;;5.05
78917;BMP280;68315;48.608;11.436;2023-03-01T21:01:01;97336.25;;;5.04
78917;BMP280;68315;48.608;11.436;2023-03-01T21:03:27;97334.72;;;4.97
78917;BMP280;68315;48.608;11.436;2023-03-01T21:05:56;97335.41;;;4.92
78917;BMP280;68315;48.608;11.436;2023-03-01T21:08:21;97340.38;;;4.88
78917;BMP280;68315;48.608;11.436;2023-03-01T21:10:51;97347.41;;;4.74
78917;BMP280;68315;48.608;11.436;2023-03-01T21:13:16;97344.41;;;4.67
78917;BMP280;68315;48.608;11.436;2023-03-01T21:15:42;97335.03;;;4.68
78917;BMP280;68315;48.608;11.436;2023-03-01T21:18:07;97338.47;;;4.68
78917;BMP280;68315;48.608;11.436;2023-03-01T21:20:32;97341.63;;;4.61
78917;BMP280;68315;48.608;11.436;2023-03-01T21:22:58;97336.69;;;4.60
78917;BMP280;68315;48.608;11.436;2023-03-01T21:25:23;97335.13;;;4.53
78917;BMP280;68315;48.608;11.436;2023-03-01T21:27:48;97327.16;;;4.44
78917;BMP280;68315;48.608;11.436;2023-03-01T21:30:14;97328.13;;;4.41
78917;BMP280;68315;48.608;11.436;2023-03-01T21:32:39;97330.78;;;4.35
78917;BMP280;68315;48.608;11.436;2023-03-01T21:35:04;97333.25;;;4.33
78917;BMP280;68315;48.608;11.436;2023-03-01T21:37:30;97325.81;;;4.28
78917;BMP280;68315;48.608;11.436;2023-03-01T21:39:55;97330.31;;;4.37
78917;BMP280;68315;48.608;11.436;2023-03-01T21:42:21;97322.38;;;4.33
78917;BMP280;68315;48.608;11.436;2023-03-01T21:44:46;97318.38;;;4.29
78917;BMP280;68315;48.608;11.436;2023-03-01T21:47:12;97323.50;;;4.21
78917;BMP280;68315;48.608;11.436;2023-03-01T21:49:37;97316.28;;;4.18
78917;BMP280;68315;48.608;11.436;2023-03-01T21:52:03;97311.31;;;4.11
78917;BMP280;68315;48.608;11.436;2023-03-01T21:54:29;97305.53;;;4.04
78917;BMP280;68315;48.608;11.436;2023-03-01T21:56:54;97313.47;;;4.07
78917;BMP280;68315;48.608;11.436;2023-03-01T21:59:21;97309.00;;;4.04
78917;BMP280;68315;48.608;11.436;2023-03-01T22:01:48;97305.75;;;4.00
78917;BMP280;68315;48.608;11.436;2023-03-01T22:04:14;97308.63;;;3.91
78917;BMP280;68315;48.608;11.436;2023-03-01T22:06:42;97301.94;;;3.92
78917;BMP280;68315;48.608;11.436;2023-03-01T22:09:17;97299.72;;;3.91
78917;BMP280;68315;48.608;11.436;2023-03-01T22:11:48;97299.16;;;3.87
78917;BMP280;68315;48.608;11.436;2023-03-01T22:14:16;97296.94;;;3.85
78917;BMP280;68315;48.608;11.436;2023-03-01T22:16:42;97306.16;;;3.93
78917;BMP280;68315;48.608;11.436;2023-03-01T22:19:09;97296.75;;;3.89
78917;BMP280;68315;48.608;11.436;2023-03-01T22:21:40;97300.63;;;3.82
78917;BMP280;68315;48.608;11.436;2023-03-01T22:24:06;97297.91;;;3.82
78917;BMP280;68315;48.608;11.436;2023-03-01T22:26:35;97293.16;;;3.77
78917;BMP280;68315;48.608;11.436;2023-03-01T22:29:04;97302.47;;;3.71
78917;BMP280;68315;48.608;11.436;2023-03-01T22:31:30;97297.47;;;3.63
78917;BMP280;68315;48.608;11.436;2023-03-01T22:33:56;97294.44;;;3.61
78917;BMP280;68315;48.608;11.436;2023-03-01T22:36:22;97294.19;;;3.59
78917;BMP280;68315;48.608;11.436;2023-03-01T22:38:47;97284.28;;;3.56
78917;BMP280;68315;48.608;11.436;2023-03-01T22:41:13;97290.72;;;3.59
78917;BMP280;68315;48.608;11.436;2023-03-01T22:43:38;97295.56;;;3.49
78917;BMP280;68315;48.608;11.436;2023-03-01T22:46:16;97286.38;;;3.47
78917;BMP280;68315;48.608;11.436;2023-03-01T22:48:42;97285.91;;;3.48
78917;BMP280;68315;48.608;11.436;2023-03-01T22:51:12;97291.06;;;3.46
78917;BMP280;68315;48.608;11.436;2023-03-01T22:53:38;97283.81;;;3.38
78917;BMP280;68315;48.608;11.436;2023-03-01T22:56:17;97278.78;;;3.31
78917;BMP280;68315;48.608;11.436;2023-03-01T22:58:43;97280.22;;;3.26
78917;BMP280;68315;48.608;11.436;2023-03-01T23:01:20;97272.50;;;3.25
78917;BMP280;68315;48.608;11.436;2023-03-01T23:03:46;97272.50;;;3.25
78917;BMP280;68315;48.608;11.436;2023-03-01T23:06:12;97281.38;;;3.20
78917;BMP280;68315;48.608;11.436;2023-03-01T23:08:37;97260.59;;;3.17
78917;BMP280;68315;48.608;11.436;2023-03-01T23:11:08;97264.75;;;3.12
78917;BMP280;68315;48.608;11.436;2023-03-01T23:13:34;97261.47;;;3.08
78917;BMP280;68315;48.608;11.436;2023-03-01T23:15:59;97267.63;;;3.09
78917;BMP280;68315;48.608;11.436;2023-03-01T23:18:24;97261.00;;;3.10
78917;BMP280;68315;48.608;11.436;2023-03-01T23:20:50;97255.94;;;3.02
78917;BMP280;68315;48.608;11.436;2023-03-01T23:23:15;97258.41;;;3.00
78917;BMP280;68315;48.608;11.436;2023-03-01T23:25:40;97257.66;;;3.00
78917;BMP280;68315;48.608;11.436;2023-03-01T23:28:06;97258.97;;;3.04
78917;BMP280;68315;48.608;11.436;2023-03-01T23:30:31;97263.06;;;3.00
78917;BMP280;68315;48.608;11.436;2023-03-01T23:32:56;97261.25;;;2.91
78917;BMP280;68315;48.608;11.436;2023-03-01T23:35:26;97267.16;;;2.90
78917;BMP280;68315;48.608;11.436;2023-03-01T23:37:52;97253.09;;;2.91
78917;BMP280;68315;48.608;11.436;2023-03-01T23:40:17;97257.72;;;2.85
78917;BMP280;68315;48.608;11.436;2023-03-01T23:42:45;97261.84;;;2.81
78917;BMP280;68315;48.608;11.436;2023-03-01T23:45:10;97258.84;;;2.79
78917;BMP280;68315;48.608;11.436;2023-03-01T23:47:35;97267.44;;;2.77
78917;BMP280;68315;48.608;11.436;2023-03-01T23:50:01;97266.63;;;2.71
78917;BMP280;68315;48.608;11.436;2023-03-01T23:52:26;97262.13;;;2.68
78917;BMP280;68315;48.608;11.436;2023-03-01T23:54:51;97270.47;;;2.65
78917;BMP280;68315;48.608;11.436;2023-03-01T23:57:17;97272.16;;;2.62
78917;BMP280;68315;48.608;11.436;2023-03-01T23:59:43;97269.19;;;2.60
